PWSweather.com
Personal Weather Stations
Station Observations
WATERF01
WaterfordIE

WaterfordIE

Lat: 52.2412507, Lon: -7.1414691

Elevation: 65

Station Type: Davis Vantage Vue

www.waterfordweather.com

High Low Average
Temperature 76.3°F24.6°C 60.8°F16.0°C 67.3°F19.6°C
Dew Point 66.2°F19.0°C 56.2°F13.4°C 61.2°F16.2°C
Winds 8.1 mph 13.0 kmh Calm Calm 4.0 mph W6.4 kmh W
Wind Gusts 13.8 mph22.2 kmh -- 8.0 mph12.9 kmh
Humidity 90% 62% 81%
Pressure 30.27 in1025.1 mb 30.17 in1021.7 mb -
Precipitation 0.00 in0.0 mm - -
Hour Temp Dew Point Humidity Winds Wind Gusts Pressure Precip Precip Rate Daily Precip Total
12:00 AM 63.4°F17.4°C 60.4°F15.8°C 90% 5.8 mph W9.3 kmh W 8.1 mph13.0 kmh 30.19 in1022.4 mb - 0.00 in0.0 mm 0.00 in0.0 mm
12:10 AM 63.4°F17.4°C 60.4°F15.8°C 90% 3.5 mph WSW5.6 kmh WSW 5.8 mph9.3 kmh 30.19 in1022.4 mb - 0.00 in0.0 mm 0.00 in0.0 mm
12:20 AM 63.3°F17.4°C 60.3°F15.7°C 90% 3.5 mph WSW5.6 kmh WSW 8.1 mph13.0 kmh 30.19 in1022.4 mb - 0.00 in0.0 mm 0.00 in0.0 mm
12:30 AM 63.3°F17.4°C 60.3°F15.7°C 90% 1.2 mph N1.9 kmh N 4.6 mph7.4 kmh 30.19 in1022.4 mb - 0.00 in0.0 mm 0.00 in0.0 mm
12:40 AM 63.3°F17.4°C 60.3°F15.7°C 90% 2.3 mph SSW3.7 kmh SSW 4.6 mph7.4 kmh 30.19 in1022.4 mb - 0.00 in0.0 mm 0.00 in0.0 mm
12:50 AM 63.3°F17.4°C 60.3°F15.7°C 90% 3.5 mph WSW5.6 kmh WSW 5.8 mph9.3 kmh 30.19 in1022.4 mb - 0.00 in0.0 mm 0.00 in0.0 mm
01:00 AM 63.3°F17.4°C 60.3°F15.7°C 90% 2.3 mph NW3.7 kmh NW 5.8 mph9.3 kmh 30.18 in1022.0 mb - 0.00 in0.0 mm 0.00 in0.0 mm
01:10 AM 63.3°F17.4°C 60.3°F15.7°C 90% 4.6 mph WSW7.4 kmh WSW 6.9 mph11.1 kmh 30.18 in1022.0 mb - 0.00 in0.0 mm 0.00 in0.0 mm
01:20 AM 63.2°F17.3°C 60.2°F15.7°C 90% 4.6 mph WNW7.4 kmh WNW 8.1 mph13.0 kmh 30.18 in1022.0 mb - 0.00 in0.0 mm 0.00 in0.0 mm
01:30 AM 63.1°F17.3°C 60.1°F15.6°C 90% 4.6 mph WSW7.4 kmh WSW 6.9 mph11.1 kmh 30.17 in1021.7 mb - 0.00 in0.0 mm 0.00 in0.0 mm
01:40 AM 63.0°F17.2°C 60.0°F15.6°C 90% 3.5 mph W5.6 kmh W 6.9 mph11.1 kmh 30.17 in1021.7 mb - 0.00 in0.0 mm 0.00 in0.0 mm
01:50 AM 63.0°F17.2°C 60.0°F15.6°C 90% 3.5 mph NE5.6 kmh NE 6.9 mph11.1 kmh 30.18 in1022.0 mb - 0.00 in0.0 mm 0.00 in0.0 mm
02:00 AM 63.0°F17.2°C 60.0°F15.6°C 90% 3.5 mph NW5.6 kmh NW 5.8 mph9.3 kmh 30.18 in1022.0 mb - 0.00 in0.0 mm 0.00 in0.0 mm
02:10 AM 63.0°F17.2°C 60.0°F15.6°C 90% 3.5 mph W5.6 kmh W 6.9 mph11.1 kmh 30.18 in1022.0 mb - 0.00 in0.0 mm 0.00 in0.0 mm
02:20 AM 63.0°F17.2°C 60.1°F15.6°C 90% 2.3 mph SW3.7 kmh SW 5.8 mph9.3 kmh 30.18 in1022.0 mb - 0.00 in0.0 mm 0.00 in0.0 mm
02:30 AM 63.0°F17.2°C 60.0°F15.6°C 90% 2.3 mph W3.7 kmh W 6.9 mph11.1 kmh 30.17 in1021.7 mb - 0.00 in0.0 mm 0.00 in0.0 mm
02:40 AM 63.0°F17.2°C 60.0°F15.6°C 90% 3.5 mph SW5.6 kmh SW 6.9 mph11.1 kmh 30.18 in1022.0 mb - 0.00 in0.0 mm 0.00 in0.0 mm
02:50 AM 62.9°F17.2°C 59.9°F15.5°C 90% 2.3 mph SW3.7 kmh SW 6.9 mph11.1 kmh 30.17 in1021.7 mb - 0.00 in0.0 mm 0.00 in0.0 mm
03:00 AM 62.9°F17.2°C 59.9°F15.5°C 90% 3.5 mph WSW5.6 kmh WSW 5.8 mph9.3 kmh 30.17 in1021.7 mb - 0.00 in0.0 mm 0.00 in0.0 mm
03:10 AM 62.9°F17.2°C 59.9°F15.5°C 90% 3.5 mph WSW5.6 kmh WSW 4.6 mph7.4 kmh 30.18 in1022.0 mb - 0.00 in0.0 mm 0.00 in0.0 mm
03:20 AM 62.9°F17.2°C 59.9°F15.5°C 90% 3.5 mph SSW5.6 kmh SSW 4.6 mph7.4 kmh 30.18 in1022.0 mb - 0.00 in0.0 mm 0.00 in0.0 mm
03:30 AM 62.8°F17.1°C 59.8°F15.4°C 90% 3.5 mph WNW5.6 kmh WNW 5.8 mph9.3 kmh 30.18 in1022.0 mb - 0.00 in0.0 mm 0.00 in0.0 mm
03:40 AM 62.8°F17.1°C 59.8°F15.4°C 90% 3.5 mph SW5.6 kmh SW 6.9 mph11.1 kmh 30.18 in1022.0 mb - 0.00 in0.0 mm 0.00 in0.0 mm
03:50 AM 62.8°F17.1°C 59.8°F15.4°C 90% 3.5 mph W5.6 kmh W 5.8 mph9.3 kmh 30.18 in1022.0 mb - 0.00 in0.0 mm 0.00 in0.0 mm
04:00 AM 62.7°F17.1°C 59.7°F15.4°C 90% 2.3 mph SW3.7 kmh SW 5.8 mph9.3 kmh 30.18 in1022.0 mb - 0.00 in0.0 mm 0.00 in0.0 mm
04:10 AM 62.7°F17.1°C 59.7°F15.4°C 90% Calm Calm 2.3 mph3.7 kmh 30.18 in1022.0 mb - 0.00 in0.0 mm 0.00 in0.0 mm
04:20 AM 62.7°F17.1°C 59.7°F15.4°C 90% 3.5 mph SSW5.6 kmh SSW 6.9 mph11.1 kmh 30.18 in1022.0 mb - 0.00 in0.0 mm 0.00 in0.0 mm
04:30 AM 62.7°F17.1°C 59.7°F15.4°C 90% 2.3 mph SW3.7 kmh SW 5.8 mph9.3 kmh 30.18 in1022.0 mb - 0.00 in0.0 mm 0.00 in0.0 mm
04:40 AM 62.7°F17.1°C 59.7°F15.4°C 90% 2.3 mph SW3.7 kmh SW 4.6 mph7.4 kmh 30.18 in1022.0 mb - 0.00 in0.0 mm 0.00 in0.0 mm
04:50 AM 62.7°F17.1°C 59.7°F15.4°C 90% 3.5 mph SW5.6 kmh SW 5.8 mph9.3 kmh 30.18 in1022.0 mb - 0.00 in0.0 mm 0.00 in0.0 mm
05:00 AM 62.7°F17.1°C 59.7°F15.4°C 90% 3.5 mph WNW5.6 kmh WNW 8.1 mph13.0 kmh 30.18 in1022.0 mb - 0.00 in0.0 mm 0.00 in0.0 mm
05:10 AM 62.7°F17.1°C 59.8°F15.4°C 90% 3.5 mph W5.6 kmh W 5.8 mph9.3 kmh 30.18 in1022.0 mb - 0.00 in0.0 mm 0.00 in0.0 mm
05:20 AM 62.8°F17.1°C 59.8°F15.4°C 90% 2.3 mph WSW3.7 kmh WSW 4.6 mph7.4 kmh 30.18 in1022.0 mb - 0.00 in0.0 mm 0.00 in0.0 mm
05:30 AM 62.8°F17.1°C 59.8°F15.4°C 90% 2.3 mph W3.7 kmh W 5.8 mph9.3 kmh 30.18 in1022.0 mb - 0.00 in0.0 mm 0.00 in0.0 mm
05:40 AM 62.8°F17.1°C 59.8°F15.4°C 90% Calm Calm 2.3 mph3.7 kmh 30.18 in1022.0 mb - 0.00 in0.0 mm 0.00 in0.0 mm
05:50 AM 62.9°F17.2°C 59.9°F15.5°C 90% 1.2 mph SW1.9 kmh SW 2.3 mph3.7 kmh 30.18 in1022.0 mb - 0.00 in0.0 mm 0.00 in0.0 mm
06:00 AM 63.0°F17.2°C 60.0°F15.6°C 90% 1.2 mph SW1.9 kmh SW 4.6 mph7.4 kmh 30.18 in1022.0 mb - 0.00 in0.0 mm 0.00 in0.0 mm
06:10 AM 63.1°F17.3°C 60.1°F15.6°C 90% 3.5 mph WSW5.6 kmh WSW 5.8 mph9.3 kmh 30.18 in1022.0 mb - 0.00 in0.0 mm 0.00 in0.0 mm
06:20 AM 63.2°F17.3°C 60.2°F15.7°C 90% 2.3 mph SW3.7 kmh SW 4.6 mph7.4 kmh 30.18 in1022.0 mb - 0.00 in0.0 mm 0.00 in0.0 mm
06:30 AM 63.2°F17.3°C 60.2°F15.7°C 90% 2.3 mph WSW3.7 kmh WSW 4.6 mph7.4 kmh 30.18 in1022.0 mb - 0.00 in0.0 mm 0.00 in0.0 mm
06:40 AM 63.3°F17.4°C 60.3°F15.7°C 90% 2.3 mph SW3.7 kmh SW 2.3 mph3.7 kmh 30.18 in1022.0 mb - 0.00 in0.0 mm 0.00 in0.0 mm
06:50 AM 63.3°F17.4°C 60.3°F15.7°C 90% 3.5 mph WSW5.6 kmh WSW 5.8 mph9.3 kmh 30.19 in1022.4 mb - 0.00 in0.0 mm 0.00 in0.0 mm
07:00 AM 63.2°F17.3°C 60.2°F15.7°C 90% 2.3 mph NW3.7 kmh NW 6.9 mph11.1 kmh 30.19 in1022.4 mb - 0.00 in0.0 mm 0.00 in0.0 mm
07:10 AM 63.2°F17.3°C 60.2°F15.7°C 90% 3.5 mph WSW5.6 kmh WSW 6.9 mph11.1 kmh 30.19 in1022.4 mb - 0.00 in0.0 mm 0.00 in0.0 mm
07:20 AM 63.1°F17.3°C 60.2°F15.7°C 90% 2.3 mph WSW3.7 kmh WSW 5.8 mph9.3 kmh 30.19 in1022.4 mb - 0.00 in0.0 mm 0.00 in0.0 mm
07:30 AM 63.3°F17.4°C 60.3°F15.7°C 90% 3.5 mph WSW5.6 kmh WSW 6.9 mph11.1 kmh 30.19 in1022.4 mb - 0.00 in0.0 mm 0.00 in0.0 mm
07:40 AM 63.4°F17.4°C 60.4°F15.8°C 90% 3.5 mph WSW5.6 kmh WSW 6.9 mph11.1 kmh 30.19 in1022.4 mb - 0.00 in0.0 mm 0.00 in0.0 mm
07:50 AM 63.4°F17.4°C 60.1°F15.6°C 89% 5.8 mph W9.3 kmh W 8.1 mph13.0 kmh 30.20 in1022.7 mb - 0.00 in0.0 mm 0.00 in0.0 mm
08:00 AM 63.6°F17.6°C 60.3°F15.7°C 89% 2.3 mph WNW3.7 kmh WNW 5.8 mph9.3 kmh 30.20 in1022.7 mb - 0.00 in0.0 mm 0.00 in0.0 mm
08:10 AM 64.1°F17.8°C 60.8°F16.0°C 89% Calm Calm -- 30.19 in1022.4 mb - 0.00 in0.0 mm 0.00 in0.0 mm
08:20 AM 64.3°F17.9°C 61.0°F16.1°C 89% 4.6 mph WNW7.4 kmh WNW 6.9 mph11.1 kmh 30.20 in1022.7 mb - 0.00 in0.0 mm 0.00 in0.0 mm
08:30 AM 64.6°F18.1°C 61.3°F16.3°C 89% 4.6 mph WNW7.4 kmh WNW 6.9 mph11.1 kmh 30.20 in1022.7 mb - 0.00 in0.0 mm 0.00 in0.0 mm
08:40 AM 64.6°F18.1°C 61.3°F16.3°C 89% 2.3 mph WSW3.7 kmh WSW 5.8 mph9.3 kmh 30.20 in1022.7 mb - 0.00 in0.0 mm 0.00 in0.0 mm
08:50 AM 64.8°F18.2°C 61.5°F16.4°C 89% Calm Calm 2.3 mph3.7 kmh 30.20 in1022.7 mb - 0.00 in0.0 mm 0.00 in0.0 mm
09:00 AM 65.5°F18.6°C 61.9°F16.6°C 88% 1.2 mph SW1.9 kmh SW 4.6 mph7.4 kmh 30.20 in1022.7 mb - 0.00 in0.0 mm 0.00 in0.0 mm
09:10 AM 66.1°F18.9°C 62.5°F16.9°C 88% 3.5 mph WSW5.6 kmh WSW 8.1 mph13.0 kmh 30.20 in1022.7 mb - 0.00 in0.0 mm 0.00 in0.0 mm
09:20 AM 66.5°F19.2°C 62.5°F16.9°C 87% 4.6 mph NW7.4 kmh NW 5.8 mph9.3 kmh 30.20 in1022.7 mb - 0.00 in0.0 mm 0.00 in0.0 mm
09:30 AM 67.0°F19.4°C 63.0°F17.2°C 87% 2.3 mph NW3.7 kmh NW 4.6 mph7.4 kmh 30.19 in1022.4 mb - 0.00 in0.0 mm 0.00 in0.0 mm
09:40 AM 68.3°F20.2°C 63.9°F17.7°C 86% 2.3 mph WNW3.7 kmh WNW 4.6 mph7.4 kmh 30.19 in1022.4 mb - 0.00 in0.0 mm 0.00 in0.0 mm
09:50 AM 68.6°F20.3°C 63.9°F17.7°C 85% 1.2 mph W1.9 kmh W 5.8 mph9.3 kmh 30.19 in1022.4 mb - 0.00 in0.0 mm 0.00 in0.0 mm
10:00 AM 69.4°F20.8°C 64.4°F18.0°C 84% 2.3 mph SSW3.7 kmh SSW 4.6 mph7.4 kmh 30.19 in1022.4 mb - 0.00 in0.0 mm 0.00 in0.0 mm
10:10 AM 69.9°F21.1°C 64.5°F18.1°C 83% 2.3 mph SW3.7 kmh SW 2.3 mph3.7 kmh 30.20 in1022.7 mb - 0.00 in0.0 mm 0.00 in0.0 mm
10:20 AM 70.4°F21.3°C 65.0°F18.3°C 83% Calm Calm -- 30.19 in1022.4 mb - 0.00 in0.0 mm 0.00 in0.0 mm
10:30 AM 70.7°F21.5°C 64.9°F18.3°C 82% 3.5 mph SSW5.6 kmh SSW 5.8 mph9.3 kmh 30.19 in1022.4 mb - 0.00 in0.0 mm 0.00 in0.0 mm
10:40 AM 71.0°F21.7°C 65.2°F18.4°C 82% 3.5 mph WNW5.6 kmh WNW 5.8 mph9.3 kmh 30.19 in1022.4 mb - 0.00 in0.0 mm 0.00 in0.0 mm
10:50 AM 71.4°F21.9°C 65.6°F18.7°C 82% 4.6 mph WSW7.4 kmh WSW 8.1 mph13.0 kmh 30.20 in1022.7 mb - 0.00 in0.0 mm 0.00 in0.0 mm
11:00 AM 72.4°F22.4°C 65.9°F18.8°C 80% 5.8 mph SSW9.3 kmh SSW 5.8 mph9.3 kmh 30.20 in1022.7 mb - 0.00 in0.0 mm 0.00 in0.0 mm
11:10 AM 73.1°F22.8°C 66.2°F19.0°C 79% 5.8 mph WSW9.3 kmh WSW 9.2 mph14.8 kmh 30.19 in1022.4 mb - 0.00 in0.0 mm 0.00 in0.0 mm
11:20 AM 74.0°F23.3°C 66.0°F18.9°C 76% 5.8 mph W9.3 kmh W 8.1 mph13.0 kmh 30.19 in1022.4 mb - 0.00 in0.0 mm 0.00 in0.0 mm
11:30 AM 74.5°F23.6°C 66.1°F18.9°C 75% 5.8 mph W9.3 kmh W 8.1 mph13.0 kmh 30.19 in1022.4 mb - 0.00 in0.0 mm 0.00 in0.0 mm
11:40 AM 74.4°F23.6°C 65.6°F18.7°C 74% 6.9 mph SSW11.1 kmh SSW 9.2 mph14.8 kmh 30.19 in1022.4 mb - 0.00 in0.0 mm 0.00 in0.0 mm
11:50 AM 74.9°F23.8°C 65.7°F18.7°C 73% 6.9 mph WSW11.1 kmh WSW 11.5 mph18.5 kmh 30.19 in1022.4 mb - 0.00 in0.0 mm 0.00 in0.0 mm
12:00 PM 75.6°F24.2°C 65.5°F18.6°C 71% 8.1 mph SW13.0 kmh SW 12.7 mph20.4 kmh 30.19 in1022.4 mb - 0.00 in0.0 mm 0.00 in0.0 mm
12:10 PM 75.2°F24.0°C 65.2°F18.4°C 71% 8.1 mph SSW13.0 kmh SSW 13.8 mph22.2 kmh 30.19 in1022.4 mb - 0.00 in0.0 mm 0.00 in0.0 mm
12:20 PM 75.0°F23.9°C 64.9°F18.3°C 71% 5.8 mph W9.3 kmh W 11.5 mph18.5 kmh 30.19 in1022.4 mb - 0.00 in0.0 mm 0.00 in0.0 mm
12:30 PM 72.8°F22.7°C 63.2°F17.3°C 72% 4.6 mph W7.4 kmh W 8.1 mph13.0 kmh 30.19 in1022.4 mb - 0.00 in0.0 mm 0.00 in0.0 mm
12:40 PM 72.1°F22.3°C 63.4°F17.4°C 74% 5.8 mph W9.3 kmh W 11.5 mph18.5 kmh 30.20 in1022.7 mb - 0.00 in0.0 mm 0.00 in0.0 mm
12:50 PM 71.6°F22.0°C 63.6°F17.6°C 76% 4.6 mph WNW7.4 kmh WNW 8.1 mph13.0 kmh 30.19 in1022.4 mb - 0.00 in0.0 mm 0.00 in0.0 mm
01:00 PM 71.4°F21.9°C 63.4°F17.4°C 76% 4.6 mph WSW7.4 kmh WSW 5.8 mph9.3 kmh 30.19 in1022.4 mb - 0.00 in0.0 mm 0.00 in0.0 mm
01:10 PM 71.8°F22.1°C 63.8°F17.7°C 76% 4.6 mph W7.4 kmh W 8.1 mph13.0 kmh 30.19 in1022.4 mb - 0.00 in0.0 mm 0.00 in0.0 mm
01:20 PM 72.3°F22.4°C 64.6°F18.1°C 77% 5.8 mph SW9.3 kmh SW 9.2 mph14.8 kmh 30.19 in1022.4 mb - 0.00 in0.0 mm 0.00 in0.0 mm
01:30 PM 73.2°F22.9°C 64.8°F18.2°C 75% 5.8 mph S9.3 kmh S 10.4 mph16.7 kmh 30.19 in1022.4 mb - 0.00 in0.0 mm 0.00 in0.0 mm
01:40 PM 74.2°F23.4°C 64.6°F18.1°C 72% 5.8 mph WNW9.3 kmh WNW 8.1 mph13.0 kmh 30.19 in1022.4 mb - 0.00 in0.0 mm 0.00 in0.0 mm
01:50 PM 72.9°F22.7°C 64.2°F17.9°C 74% 4.6 mph WSW7.4 kmh WSW 8.1 mph13.0 kmh 30.19 in1022.4 mb - 0.00 in0.0 mm 0.00 in0.0 mm
02:00 PM 72.8°F22.7°C 64.0°F17.8°C 74% 3.5 mph WNW5.6 kmh WNW 6.9 mph11.1 kmh 30.19 in1022.4 mb - 0.00 in0.0 mm 0.00 in0.0 mm
02:10 PM 73.0°F22.8°C 63.8°F17.7°C 73% 5.8 mph W9.3 kmh W 8.1 mph13.0 kmh 30.19 in1022.4 mb - 0.00 in0.0 mm 0.00 in0.0 mm
02:20 PM 73.2°F22.9°C 64.0°F17.8°C 73% 8.1 mph S13.0 kmh S 11.5 mph18.5 kmh 30.19 in1022.4 mb - 0.00 in0.0 mm 0.00 in0.0 mm
02:30 PM 74.4°F23.6°C 64.8°F18.2°C 72% 5.8 mph WSW9.3 kmh WSW 11.5 mph18.5 kmh 30.19 in1022.4 mb - 0.00 in0.0 mm 0.00 in0.0 mm
02:40 PM 74.6°F23.7°C 64.1°F17.8°C 70% 4.6 mph W7.4 kmh W 8.1 mph13.0 kmh 30.19 in1022.4 mb - 0.00 in0.0 mm 0.00 in0.0 mm
02:50 PM 75.7°F24.3°C 64.8°F18.2°C 69% 5.8 mph SW9.3 kmh SW 8.1 mph13.0 kmh 30.19 in1022.4 mb - 0.00 in0.0 mm 0.00 in0.0 mm
03:00 PM 76.3°F24.6°C 64.5°F18.1°C 67% 5.8 mph W9.3 kmh W 8.1 mph13.0 kmh 30.19 in1022.4 mb - 0.00 in0.0 mm 0.00 in0.0 mm
03:10 PM 76.0°F24.4°C 64.3°F17.9°C 67% 3.5 mph WSW5.6 kmh WSW 8.1 mph13.0 kmh 30.19 in1022.4 mb - 0.00 in0.0 mm 0.00 in0.0 mm
03:20 PM 75.9°F24.4°C 64.2°F17.9°C 67% 3.5 mph SW5.6 kmh SW 6.9 mph11.1 kmh 30.20 in1022.7 mb - 0.00 in0.0 mm 0.00 in0.0 mm
05:10 PM 74.7°F23.7°C 64.3°F17.9°C 70% 2.3 mph N3.7 kmh N 1.2 mph1.9 kmh 30.19 in1022.4 mb - 0.00 in0.0 mm 0.00 in0.0 mm
05:20 PM 74.7°F23.7°C 63.5°F17.5°C 68% 1.2 mph SW1.9 kmh SW 4.6 mph7.4 kmh 30.19 in1022.4 mb - 0.00 in0.0 mm 0.00 in0.0 mm
05:30 PM 74.9°F23.8°C 63.6°F17.6°C 68% 3.5 mph WNW5.6 kmh WNW 5.8 mph9.3 kmh 30.20 in1022.7 mb - 0.00 in0.0 mm 0.00 in0.0 mm
05:40 PM 74.9°F23.8°C 61.0°F16.1°C 62% 5.8 mph NW9.3 kmh NW 11.5 mph18.5 kmh 30.20 in1022.7 mb - 0.00 in0.0 mm 0.00 in0.0 mm
05:50 PM 74.5°F23.6°C 62.0°F16.7°C 65% 4.6 mph NW7.4 kmh NW 8.1 mph13.0 kmh 30.20 in1022.7 mb - 0.00 in0.0 mm 0.00 in0.0 mm
06:00 PM 74.4°F23.6°C 61.8°F16.6°C 65% 8.1 mph NW13.0 kmh NW 13.8 mph22.2 kmh 30.20 in1022.7 mb - 0.00 in0.0 mm 0.00 in0.0 mm
06:10 PM 73.9°F23.3°C 61.0°F16.1°C 64% 8.1 mph NW13.0 kmh NW 11.5 mph18.5 kmh 30.20 in1022.7 mb - 0.00 in0.0 mm 0.00 in0.0 mm
06:20 PM 73.7°F23.2°C 60.8°F16.0°C 64% 8.1 mph NW13.0 kmh NW 12.7 mph20.4 kmh 30.20 in1022.7 mb - 0.00 in0.0 mm 0.00 in0.0 mm
06:30 PM 73.4°F23.0°C 60.9°F16.1°C 65% 6.9 mph NW11.1 kmh NW 11.5 mph18.5 kmh 30.20 in1022.7 mb - 0.00 in0.0 mm 0.00 in0.0 mm
06:40 PM 73.3°F22.9°C 60.8°F16.0°C 65% 6.9 mph NW11.1 kmh NW 11.5 mph18.5 kmh 30.20 in1022.7 mb - 0.00 in0.0 mm 0.00 in0.0 mm
06:50 PM 73.1°F22.8°C 61.0°F16.1°C 66% 6.9 mph NW11.1 kmh NW 12.7 mph20.4 kmh 30.21 in1023.0 mb - 0.00 in0.0 mm 0.00 in0.0 mm
07:00 PM 72.5°F22.5°C 60.9°F16.1°C 67% 5.8 mph NW9.3 kmh NW 11.5 mph18.5 kmh 30.21 in1023.0 mb - 0.00 in0.0 mm 0.00 in0.0 mm
07:10 PM 71.8°F22.1°C 60.2°F15.7°C 67% 8.1 mph NW13.0 kmh NW 13.8 mph22.2 kmh 30.21 in1023.0 mb - 0.00 in0.0 mm 0.00 in0.0 mm
07:20 PM 71.0°F21.7°C 59.9°F15.5°C 68% 8.1 mph NW13.0 kmh NW 11.5 mph18.5 kmh 30.21 in1023.0 mb - 0.00 in0.0 mm 0.00 in0.0 mm
07:30 PM 70.6°F21.4°C 60.3°F15.7°C 70% 8.1 mph NW13.0 kmh NW 11.5 mph18.5 kmh 30.21 in1023.0 mb - 0.00 in0.0 mm 0.00 in0.0 mm
07:40 PM 70.3°F21.3°C 60.5°F15.8°C 71% 5.8 mph NW9.3 kmh NW 8.1 mph13.0 kmh 30.22 in1023.4 mb - 0.00 in0.0 mm 0.00 in0.0 mm
07:50 PM 69.8°F21.0°C 60.3°F15.7°C 72% 4.6 mph NW7.4 kmh NW 11.5 mph18.5 kmh 30.22 in1023.4 mb - 0.00 in0.0 mm 0.00 in0.0 mm
08:00 PM 69.2°F20.7°C 60.2°F15.7°C 73% 4.6 mph NW7.4 kmh NW 8.1 mph13.0 kmh 30.23 in1023.7 mb - 0.00 in0.0 mm 0.00 in0.0 mm
08:10 PM 68.7°F20.4°C 60.1°F15.6°C 74% 6.9 mph NW11.1 kmh NW 8.1 mph13.0 kmh 30.23 in1023.7 mb - 0.00 in0.0 mm 0.00 in0.0 mm
08:20 PM 68.3°F20.2°C 60.1°F15.6°C 75% 3.5 mph NNW5.6 kmh NNW 8.1 mph13.0 kmh 30.23 in1023.7 mb - 0.00 in0.0 mm 0.00 in0.0 mm
08:30 PM 67.9°F19.9°C 59.7°F15.4°C 75% 4.6 mph NW7.4 kmh NW 8.1 mph13.0 kmh 30.23 in1023.7 mb - 0.00 in0.0 mm 0.00 in0.0 mm
08:40 PM 67.4°F19.7°C 59.6°F15.3°C 76% 4.6 mph NW7.4 kmh NW 6.9 mph11.1 kmh 30.24 in1024.0 mb - 0.00 in0.0 mm 0.00 in0.0 mm
08:50 PM 66.8°F19.3°C 59.4°F15.2°C 77% 4.6 mph NW7.4 kmh NW 8.1 mph13.0 kmh 30.24 in1024.0 mb - 0.00 in0.0 mm 0.00 in0.0 mm
09:00 PM 66.3°F19.1°C 59.2°F15.1°C 78% 4.6 mph NW7.4 kmh NW 8.1 mph13.0 kmh 30.25 in1024.4 mb - 0.00 in0.0 mm 0.00 in0.0 mm
09:10 PM 65.8°F18.8°C 59.1°F15.1°C 79% 3.5 mph NW5.6 kmh NW 5.8 mph9.3 kmh 30.25 in1024.4 mb - 0.00 in0.0 mm 0.00 in0.0 mm
09:20 PM 65.4°F18.6°C 58.7°F14.8°C 79% 3.5 mph NW5.6 kmh NW 5.8 mph9.3 kmh 30.25 in1024.4 mb - 0.00 in0.0 mm 0.00 in0.0 mm
09:30 PM 65.0°F18.3°C 58.7°F14.8°C 80% 4.6 mph NW7.4 kmh NW 8.1 mph13.0 kmh 30.26 in1024.7 mb - 0.00 in0.0 mm 0.00 in0.0 mm
09:40 PM 64.6°F18.1°C 58.3°F14.6°C 80% 8.1 mph NW13.0 kmh NW 10.4 mph16.7 kmh 30.26 in1024.7 mb - 0.00 in0.0 mm 0.00 in0.0 mm
09:50 PM 64.2°F17.9°C 58.2°F14.6°C 81% 5.8 mph NW9.3 kmh NW 8.1 mph13.0 kmh 30.26 in1024.7 mb - 0.00 in0.0 mm 0.00 in0.0 mm
10:00 PM 63.9°F17.7°C 58.3°F14.6°C 82% 5.8 mph NW9.3 kmh NW 8.1 mph13.0 kmh 30.27 in1025.1 mb - 0.00 in0.0 mm 0.00 in0.0 mm
10:10 PM 63.7°F17.6°C 58.1°F14.5°C 82% 5.8 mph NW9.3 kmh NW 8.1 mph13.0 kmh 30.27 in1025.1 mb - 0.00 in0.0 mm 0.00 in0.0 mm
10:20 PM 63.4°F17.4°C 57.8°F14.3°C 82% 8.1 mph NW13.0 kmh NW 13.8 mph22.2 kmh 30.27 in1025.1 mb - 0.00 in0.0 mm 0.00 in0.0 mm
10:30 PM 63.1°F17.3°C 57.9°F14.4°C 83% 5.8 mph NW9.3 kmh NW 12.7 mph20.4 kmh 30.27 in1025.1 mb - 0.00 in0.0 mm 0.00 in0.0 mm
10:40 PM 62.7°F17.1°C 57.5°F14.2°C 83% 6.9 mph NW11.1 kmh NW 11.5 mph18.5 kmh 30.27 in1025.1 mb - 0.00 in0.0 mm 0.00 in0.0 mm
10:50 PM 62.3°F16.8°C 57.4°F14.1°C 84% 8.1 mph NW13.0 kmh NW 13.8 mph22.2 kmh 30.26 in1024.7 mb - 0.00 in0.0 mm 0.00 in0.0 mm
11:00 PM 62.0°F16.7°C 57.1°F13.9°C 84% 6.9 mph NW11.1 kmh NW 12.7 mph20.4 kmh 30.27 in1025.1 mb - 0.00 in0.0 mm 0.00 in0.0 mm
11:10 PM 61.7°F16.5°C 56.8°F13.8°C 84% 6.9 mph NW11.1 kmh NW 11.5 mph18.5 kmh 30.26 in1024.7 mb - 0.00 in0.0 mm 0.00 in0.0 mm
11:20 PM 61.4°F16.3°C 56.5°F13.6°C 84% 5.8 mph NW9.3 kmh NW 8.1 mph13.0 kmh 30.27 in1025.1 mb - 0.00 in0.0 mm 0.00 in0.0 mm
11:30 PM 61.2°F16.2°C 56.7°F13.7°C 85% 5.8 mph NW9.3 kmh NW 9.2 mph14.8 kmh 30.27 in1025.1 mb - 0.00 in0.0 mm 0.00 in0.0 mm
11:40 PM 60.9°F16.1°C 56.4°F13.6°C 85% 8.1 mph NW13.0 kmh NW 12.7 mph20.4 kmh 30.27 in1025.1 mb - 0.00 in0.0 mm 0.00 in0.0 mm
11:50 PM 60.8°F16.0°C 56.2°F13.4°C 85% 6.9 mph NW11.1 kmh NW 12.7 mph20.4 kmh 30.27 in1025.1 mb - 0.00 in0.0 mm 0.00 in0.0 mm